createdAt,value
2023-03-13T16:02:37.780Z,17.10
2023-03-13T16:07:42.850Z,17.10
2023-03-13T16:12:48.407Z,17.20
2023-03-13T16:17:56.603Z,17.20
2023-03-13T16:23:03.772Z,17.10
2023-03-13T16:28:09.327Z,16.80
2023-03-13T16:33:17.413Z,16.60
2023-03-13T16:38:22.536Z,16.40
2023-03-13T16:43:28.025Z,16.30
2023-03-13T16:48:35.936Z,16.00
2023-03-13T16:53:41.290Z,15.90
2023-03-13T16:58:47.158Z,15.60
2023-03-13T17:03:55.463Z,15.50
2023-03-13T17:09:02.125Z,15.40
2023-03-13T17:14:08.075Z,15.30
2023-03-13T17:19:17.130Z,15.20
2023-03-13T17:24:22.581Z,15.10
2023-03-13T17:29:27.636Z,15.10
2023-03-13T17:34:35.477Z,15.00
2023-03-13T17:39:40.655Z,14.90
2023-03-13T17:44:45.828Z,14.90
2023-03-13T17:49:53.721Z,14.80
2023-03-13T17:54:59.048Z,14.70
2023-03-13T18:00:09.076Z,14.60
2023-03-13T18:05:17.087Z,14.50
2023-03-13T18:10:24.704Z,14.40
2023-03-13T18:15:30.114Z,14.30
2023-03-13T18:20:39.277Z,14.20
2023-03-13T18:25:44.666Z,14.30
2023-03-13T18:30:49.785Z,14.20
2023-03-13T18:35:57.636Z,14.30
2023-03-13T18:41:02.851Z,14.30
2023-03-13T18:46:08.799Z,14.30
2023-03-13T18:51:21.091Z,14.30
2023-03-13T18:56:28.685Z,14.20
2023-03-13T19:01:34.623Z,14.20
2023-03-13T19:06:43.518Z,14.10
2023-03-13T19:11:49.089Z,14.20
2023-03-13T19:16:57.627Z,14.20
2023-03-13T19:22:05.716Z,14.20
2023-03-13T19:27:13.156Z,14.20
2023-03-13T19:32:19.313Z,14.10
2023-03-13T19:37:27.147Z,14.00
2023-03-13T19:42:34.230Z,13.90
2023-03-13T19:47:39.543Z,13.80
2023-03-13T19:52:48.199Z,13.60
2023-03-13T19:57:53.363Z,13.30
2023-03-13T20:02:58.575Z,13.10
2023-03-13T20:08:06.408Z,13.00
2023-03-13T20:13:11.501Z,12.90
2023-03-13T20:18:16.554Z,12.80
2023-03-13T20:23:24.474Z,12.60
2023-03-13T20:28:29.848Z,12.50
2023-03-13T20:33:34.997Z,12.40
2023-03-13T20:38:43.564Z,12.30
2023-03-13T20:43:48.788Z,12.30
2023-03-13T20:48:56.743Z,12.20
2023-03-13T20:54:05.670Z,12.10
2023-03-13T20:59:10.846Z,12.00
2023-03-13T21:04:15.974Z,12.00
2023-03-13T21:09:23.736Z,11.90
2023-03-13T21:14:28.896Z,11.80
2023-03-13T21:19:34.526Z,11.70
2023-03-13T21:24:42.514Z,11.60
2023-03-13T21:29:47.599Z,11.60
2023-03-13T21:34:53.092Z,11.50
2023-03-13T21:40:01.213Z,11.40
2023-03-13T21:45:06.594Z,11.30
2023-03-13T21:50:15.488Z,11.30
2023-03-13T21:55:23.269Z,11.30
2023-03-13T22:00:28.761Z,11.50
2023-03-13T22:05:33.919Z,11.60
2023-03-13T22:10:41.734Z,11.60
2023-03-13T22:15:47.035Z,11.60
2023-03-13T22:20:52.252Z,11.60
2023-03-13T22:26:01.714Z,11.50
2023-03-13T22:31:08.663Z,11.40
2023-03-13T22:36:14.513Z,11.30
2023-03-13T22:41:22.452Z,11.20
2023-03-13T22:46:28.109Z,11.10
2023-03-13T22:51:33.235Z,11.00
2023-03-13T22:56:40.895Z,10.90
2023-03-13T23:01:46.056Z,10.90
2023-03-13T23:06:51.292Z,10.80
2023-03-13T23:11:59.227Z,10.80
2023-03-13T23:17:04.473Z,10.80
2023-03-13T23:22:09.745Z,10.80
2023-03-13T23:27:17.520Z,11.00
2023-03-13T23:32:22.982Z,11.10
2023-03-13T23:37:28.351Z,11.20
2023-03-13T23:42:37.179Z,11.20
2023-03-13T23:47:43.981Z,11.40
2023-03-13T23:52:49.279Z,11.60
